createdAt,value
2023-02-11T00:01:26.377Z,28.17
2023-02-11T00:03:53.522Z,29.23
2023-02-11T00:06:20.453Z,28.60
2023-02-11T00:08:49.684Z,29.65
2023-02-11T00:11:18.634Z,29.85
2023-02-11T00:13:46.607Z,31.00
2023-02-11T00:16:19.687Z,31.60
2023-02-11T00:18:53.150Z,29.42
2023-02-11T00:21:26.311Z,28.33
2023-02-11T00:23:57.321Z,29.00
2023-02-11T00:26:31.744Z,30.38
2023-02-11T00:29:01.625Z,30.27
2023-02-11T00:31:34.057Z,26.70
2023-02-11T00:34:08.673Z,29.73
2023-02-11T00:36:38.469Z,29.67
2023-02-11T00:39:25.328Z,30.90
2023-02-11T00:42:01.565Z,30.20
2023-02-11T00:44:30.828Z,31.50
2023-02-11T00:47:05.315Z,29.75
2023-02-11T00:49:34.474Z,29.63
2023-02-11T00:52:01.281Z,29.27
2023-02-11T00:54:30.392Z,28.98
2023-02-11T00:56:57.103Z,30.35
2023-02-11T00:59:27.652Z,28.23
2023-02-11T01:02:04.703Z,28.17
2023-02-11T01:04:34.250Z,29.10
2023-02-11T01:07:01.061Z,29.58
2023-02-11T01:09:27.854Z,29.52
2023-02-11T01:11:57.130Z,29.58
2023-02-11T01:14:23.928Z,23.17
2023-02-11T01:16:53.902Z,30.23
2023-02-11T01:19:21.370Z,29.67
2023-02-11T01:21:50.480Z,29.85
2023-02-11T01:24:19.506Z,29.17
2023-02-11T01:26:48.817Z,29.63
2023-02-11T01:29:17.948Z,30.58
2023-02-11T01:31:47.137Z,29.55
2023-02-11T01:34:14.660Z,29.83
2023-02-11T01:36:41.897Z,29.48
2023-02-11T01:39:09.007Z,28.05
2023-02-11T01:41:35.846Z,28.85
2023-02-11T01:44:33.464Z,28.60
2023-02-11T01:47:06.130Z,29.27
2023-02-11T01:49:36.876Z,30.02
2023-02-11T01:52:10.477Z,30.85
2023-02-11T01:55:00.445Z,30.20
2023-02-11T01:57:32.038Z,29.73
2023-02-11T02:00:17.310Z,31.17
2023-02-11T02:02:44.437Z,29.65
2023-02-11T02:05:40.335Z,30.92
2023-02-11T02:08:21.634Z,28.63
2023-02-11T02:10:56.347Z,31.35
2023-02-11T02:13:25.068Z,33.45
2023-02-11T02:15:59.919Z,31.20
2023-02-11T02:18:51.873Z,29.95
2023-02-11T02:21:55.670Z,31.05
2023-02-11T02:24:41.223Z,32.53
2023-02-11T02:27:36.449Z,29.75
2023-02-11T02:30:28.231Z,33.28
2023-02-11T02:33:07.899Z,30.35
2023-02-11T02:35:55.714Z,30.67
2023-02-11T02:38:31.936Z,32.00
2023-02-11T02:41:20.047Z,30.73
2023-02-11T02:43:53.009Z,30.88
2023-02-11T02:46:29.999Z,31.80
2023-02-11T02:49:00.022Z,31.25
2023-02-11T02:51:51.537Z,32.17
2023-02-11T02:54:21.389Z,29.90
2023-02-11T02:57:05.370Z,31.23
2023-02-11T02:59:52.807Z,32.30
2023-02-11T03:02:35.695Z,31.33
2023-02-11T03:05:17.524Z,29.77
2023-02-11T03:07:51.649Z,29.33
2023-02-11T03:10:27.918Z,29.42
2023-02-11T03:12:57.662Z,30.73
2023-02-11T03:15:28.571Z,30.92
2023-02-11T03:18:00.744Z,30.38
2023-02-11T03:23:02.596Z,30.98
2023-02-11T03:25:37.532Z,28.98
2023-02-11T03:28:25.183Z,29.83
2023-02-11T03:31:01.268Z,28.77
2023-02-11T03:33:45.976Z,28.27
2023-02-11T03:36:20.248Z,28.42
2023-02-11T03:38:52.993Z,28.40
2023-02-11T03:41:22.249Z,28.77
2023-02-11T03:43:56.524Z,29.42
2023-02-11T03:46:34.702Z,27.80
2023-02-11T03:49:15.800Z,28.23
2023-02-11T03:51:43.333Z,27.92
2023-02-11T03:54:17.172Z,28.85
2023-02-11T03:56:51.668Z,27.30
2023-02-11T03:59:18.657Z,26.73
2023-02-11T04:01:45.452Z,27.30
2023-02-11T04:04:12.249Z,27.33
2023-02-11T04:06:41.594Z,27.30
2023-02-11T04:09:10.832Z,27.55
2023-02-11T04:11:37.574Z,26.77
2023-02-11T04:14:06.782Z,26.80
2023-02-11T04:16:33.600Z,27.65
2023-02-11T04:19:02.746Z,27.60
2023-02-11T04:21:31.990Z,27.40
2023-02-11T04:24:06.782Z,27.25
2023-02-11T04:26:36.599Z,28.13
2023-02-11T04:29:03.551Z,27.67
2023-02-11T04:31:35.115Z,27.92
2023-02-11T04:34:05.930Z,26.63
2023-02-11T04:36:32.816Z,27.55
2023-02-11T04:39:02.173Z,27.67
2023-02-11T04:44:00.387Z,27.63
2023-02-11T04:46:30.109Z,26.13
2023-02-11T04:49:05.051Z,25.80
2023-02-11T04:51:34.423Z,26.98
2023-02-11T04:54:01.224Z,29.55
2023-02-11T04:56:28.065Z,32.65
2023-02-11T04:58:57.006Z,33.17
2023-02-11T05:01:26.488Z,32.10
2023-02-11T05:03:53.432Z,33.25
2023-02-11T05:06:22.675Z,34.30
2023-02-11T05:08:54.542Z,34.58
2023-02-11T05:11:26.812Z,38.38
2023-02-11T05:14:01.585Z,38.03
2023-02-11T05:16:28.576Z,37.15
2023-02-11T05:19:03.236Z,37.03
2023-02-11T05:21:32.564Z,38.10
2023-02-11T05:24:04.384Z,38.88
2023-02-11T05:26:36.564Z,38.20
2023-02-11T05:29:08.477Z,37.15
2023-02-11T05:31:40.494Z,36.90
2023-02-11T05:34:13.118Z,37.67
2023-02-11T05:36:44.976Z,38.22
2023-02-11T05:39:12.273Z,39.05
2023-02-11T05:41:39.107Z,38.65
2023-02-11T05:44:08.221Z,38.03
2023-02-11T05:46:35.038Z,37.53
2023-02-11T05:49:08.969Z,37.90
2023-02-11T05:51:38.150Z,37.72
2023-02-11T05:54:07.998Z,39.33
2023-02-11T05:56:38.059Z,38.20
2023-02-11T05:59:12.385Z,40.88
2023-02-11T06:01:39.267Z,37.90
2023-02-11T06:04:08.981Z,38.45
2023-02-11T06:06:45.421Z,38.30
2023-02-11T06:09:12.225Z,39.58
2023-02-11T06:11:48.412Z,37.45
2023-02-11T06:14:20.085Z,37.78
2023-02-11T06:16:52.373Z,38.85
2023-02-11T06:19:21.598Z,38.03
2023-02-11T06:21:48.464Z,38.83
2023-02-11T06:24:28.696Z,36.25
2023-02-11T06:27:05.290Z,41.28
2023-02-11T06:29:35.467Z,38.03
2023-02-11T06:32:08.618Z,38.58
2023-02-11T06:34:38.829Z,38.78
2023-02-11T06:37:08.388Z,38.47
2023-02-11T06:39:35.312Z,38.45
2023-02-11T06:42:06.985Z,38.40
2023-02-11T06:44:34.682Z,37.03
2023-02-11T06:47:04.273Z,36.22
2023-02-11T06:49:34.034Z,38.00
2023-02-11T06:52:00.987Z,37.83
2023-02-11T06:54:32.116Z,38.40
2023-02-11T06:56:58.845Z,37.38
2023-02-11T06:59:28.270Z,38.15
2023-02-11T07:01:58.186Z,37.90
2023-02-11T07:04:29.662Z,39.40
2023-02-11T07:06:59.501Z,37.42
2023-02-11T07:09:33.487Z,37.47
2023-02-11T07:12:02.574Z,39.78
2023-02-11T07:14:34.151Z,40.10
2023-02-11T07:17:04.128Z,39.78
2023-02-11T07:19:33.288Z,40.90
2023-02-11T07:22:02.185Z,43.30
2023-02-11T07:24:30.216Z,41.08
2023-02-11T07:26:57.111Z,42.38
2023-02-11T07:29:34.652Z,40.92
2023-02-11T07:32:03.827Z,41.00
2023-02-11T07:34:35.804Z,40.97
2023-02-11T07:37:07.089Z,41.72
2023-02-11T07:39:34.226Z,44.13
2023-02-11T07:42:00.985Z,42.03
2023-02-11T07:44:27.811Z,42.65
2023-02-11T07:46:58.609Z,42.30
2023-02-11T07:49:27.854Z,41.45
2023-02-11T07:51:59.731Z,41.83
2023-02-11T07:54:28.771Z,42.00
2023-02-11T07:56:55.580Z,41.13
2023-02-11T07:59:25.161Z,41.22
2023-02-11T08:01:55.022Z,39.47
2023-02-11T08:04:23.174Z,39.80
2023-02-11T08:06:52.920Z,40.60
2023-02-11T08:09:24.864Z,42.80
2023-02-11T08:11:56.645Z,42.20
2023-02-11T08:14:28.684Z,41.13
2023-02-11T08:17:01.082Z,41.33
2023-02-11T08:19:28.159Z,40.83
2023-02-11T08:21:58.571Z,41.33
2023-02-11T08:24:28.337Z,38.38
2023-02-11T08:26:56.737Z,37.45
2023-02-11T08:29:30.912Z,33.35
2023-02-11T08:31:57.984Z,33.03
2023-02-11T08:34:26.920Z,30.13
2023-02-11T08:36:54.221Z,28.80
2023-02-11T08:39:24.518Z,25.40
2023-02-11T08:41:54.104Z,23.80
2023-02-11T08:46:48.362Z,22.80
2023-02-11T08:49:15.692Z,23.70
2023-02-11T08:51:45.897Z,25.80
2023-02-11T08:54:14.173Z,22.80
2023-02-11T08:56:47.608Z,23.42
2023-02-11T08:59:16.081Z,22.50
2023-02-11T09:01:47.847Z,21.52
2023-02-11T09:04:14.996Z,23.98
2023-02-11T09:06:42.184Z,23.02
2023-02-11T09:09:13.529Z,23.17
2023-02-11T09:11:41.540Z,24.58
2023-02-11T09:14:20.544Z,22.88
2023-02-11T09:16:48.324Z,24.48
2023-02-11T09:19:15.655Z,24.23
2023-02-11T09:21:45.476Z,23.83
2023-02-11T09:24:12.335Z,24.40
2023-02-11T09:26:43.395Z,23.85
2023-02-11T09:29:10.446Z,23.90
2023-02-11T09:31:37.591Z,25.75
2023-02-11T09:34:09.846Z,24.98
2023-02-11T09:36:43.842Z,23.55
2023-02-11T09:39:18.273Z,25.20
2023-02-11T09:41:48.104Z,24.50
2023-02-11T09:44:23.688Z,25.20
2023-02-11T09:47:01.196Z,25.27
2023-02-11T09:49:39.418Z,26.50
2023-02-11T09:52:22.655Z,26.52
2023-02-11T09:54:58.460Z,24.85
2023-02-11T09:57:36.836Z,26.20
2023-02-11T10:00:20.043Z,25.15
2023-02-11T10:02:46.749Z,25.15
2023-02-11T10:05:17.804Z,25.95
2023-02-11T10:07:44.757Z,26.05
2023-02-11T10:10:30.026Z,26.08
2023-02-11T10:13:21.897Z,25.98
2023-02-11T10:16:16.183Z,27.08
2023-02-11T10:19:03.129Z,26.00
2023-02-11T10:21:34.403Z,26.23
2023-02-11T10:24:05.745Z,28.30
2023-02-11T10:26:36.990Z,28.15
2023-02-11T10:29:25.262Z,27.27
2023-02-11T10:31:52.383Z,27.65
2023-02-11T10:34:19.369Z,28.00
2023-02-11T10:39:16.984Z,28.38
2023-02-11T10:41:48.582Z,27.85
2023-02-11T10:44:31.017Z,26.98
2023-02-11T10:47:00.108Z,27.05
2023-02-11T10:49:40.465Z,27.67
2023-02-11T10:52:30.707Z,28.05
2023-02-11T10:55:29.135Z,27.73
2023-02-11T10:58:33.499Z,25.70
2023-02-11T11:03:43.265Z,25.35
2023-02-11T11:06:10.191Z,25.98
2023-02-11T11:08:52.213Z,24.65
2023-02-11T11:11:29.619Z,27.52
2023-02-11T11:14:03.360Z,25.88
2023-02-11T11:16:37.058Z,26.38
2023-02-11T11:19:09.743Z,26.73
2023-02-11T11:21:42.522Z,24.85
2023-02-11T11:24:22.212Z,26.13
2023-02-11T11:26:56.993Z,28.35
2023-02-11T11:29:46.007Z,25.60
2023-02-11T11:32:18.911Z,27.92
2023-02-11T11:35:17.854Z,25.50
2023-02-11T11:37:47.103Z,26.63
2023-02-11T11:40:16.741Z,24.52
2023-02-11T11:42:47.258Z,25.55
2023-02-11T11:45:19.939Z,23.45
2023-02-11T11:47:53.316Z,25.40
2023-02-11T11:50:35.597Z,23.20
2023-02-11T11:53:26.508Z,21.08
2023-02-11T11:56:00.155Z,21.08
2023-02-11T11:58:32.852Z,22.02
2023-02-11T12:01:02.308Z,22.05
2023-02-11T12:06:41.307Z,21.05
2023-02-11T12:09:32.463Z,22.45
2023-02-11T12:12:24.092Z,21.63
2023-02-11T12:15:12.174Z,22.10
2023-02-11T12:17:38.940Z,19.88
2023-02-11T12:20:18.338Z,20.77
2023-02-11T12:25:38.876Z,19.05
2023-02-11T12:28:27.555Z,19.98
2023-02-11T12:31:12.078Z,18.98
2023-02-11T12:33:59.965Z,20.20
2023-02-11T12:37:07.995Z,18.55
2023-02-11T12:40:00.589Z,18.70
2023-02-11T12:42:52.036Z,19.00
2023-02-11T12:45:40.001Z,19.00
2023-02-11T12:48:35.629Z,18.15
2023-02-11T12:51:02.605Z,16.92
2023-02-11T12:53:32.825Z,16.02
2023-02-11T12:56:22.994Z,15.82
2023-02-11T12:58:53.136Z,17.40
2023-02-11T13:01:41.014Z,17.27
2023-02-11T13:04:22.072Z,17.17
2023-02-11T13:06:52.474Z,15.85
2023-02-11T13:09:33.150Z,14.40
2023-02-11T13:12:23.031Z,15.05
2023-02-11T13:14:52.944Z,15.10
2023-02-11T13:17:50.247Z,14.27
2023-02-11T13:20:25.903Z,14.55
2023-02-11T13:23:24.274Z,14.40
2023-02-11T13:25:57.479Z,13.88
2023-02-11T13:28:27.280Z,14.35
2023-02-11T13:31:03.235Z,14.35
2023-02-11T13:33:43.155Z,14.27
2023-02-11T13:36:09.949Z,14.80
2023-02-11T13:38:40.066Z,15.50
2023-02-11T13:41:35.804Z,14.50
2023-02-11T13:44:08.597Z,14.52
2023-02-11T13:46:54.928Z,15.40
2023-02-11T13:49:25.912Z,15.00
2023-02-11T13:52:00.484Z,14.30
2023-02-11T13:54:31.889Z,15.23
2023-02-11T13:57:19.677Z,13.52
2023-02-11T13:59:58.168Z,15.63
2023-02-11T14:02:49.497Z,14.33
2023-02-11T14:05:50.518Z,15.20
2023-02-11T14:08:45.662Z,14.80
2023-02-11T14:11:25.306Z,14.95
2023-02-11T14:13:55.018Z,14.35
2023-02-11T14:16:37.302Z,15.93
2023-02-11T14:19:06.787Z,14.20
2023-02-11T14:21:36.973Z,14.65
2023-02-11T14:24:07.424Z,15.55
2023-02-11T14:26:56.958Z,15.75
2023-02-11T14:29:34.210Z,14.48
2023-02-11T14:32:23.661Z,16.00
2023-02-11T14:35:25.954Z,15.55
2023-02-11T14:38:14.029Z,15.45
2023-02-11T14:40:42.403Z,16.87
2023-02-11T14:43:36.384Z,16.08
2023-02-11T14:46:03.940Z,16.13
2023-02-11T14:48:40.726Z,15.30
2023-02-11T14:51:10.186Z,16.60
2023-02-11T14:56:04.091Z,16.33
2023-02-11T14:58:32.689Z,16.27
2023-02-11T15:01:23.121Z,16.00
2023-02-11T15:03:50.166Z,16.00
2023-02-11T15:06:45.037Z,17.08
2023-02-11T15:09:19.824Z,15.80
2023-02-11T15:11:49.792Z,16.02
2023-02-11T15:14:29.468Z,15.90
2023-02-11T15:17:01.701Z,16.70
2023-02-11T15:19:34.237Z,15.48
2023-02-11T15:22:08.532Z,16.42
2023-02-11T15:24:35.736Z,16.65
2023-02-11T15:27:08.650Z,15.95
2023-02-11T15:29:40.090Z,17.92
2023-02-11T15:32:10.044Z,16.35
2023-02-11T15:34:37.266Z,17.23
2023-02-11T15:37:09.335Z,17.30
2023-02-11T15:39:44.174Z,16.13
2023-02-11T15:42:24.299Z,16.63
2023-02-11T15:45:16.541Z,16.30
2023-02-11T15:47:54.314Z,17.20
2023-02-11T15:50:21.224Z,17.70
2023-02-11T15:52:50.485Z,16.27
2023-02-11T15:55:18.025Z,17.15
2023-02-11T15:57:54.061Z,17.08
2023-02-11T16:00:24.801Z,17.55
2023-02-11T16:02:52.068Z,16.88
2023-02-11T16:05:31.864Z,18.13
2023-02-11T16:08:24.570Z,18.35
2023-02-11T16:11:03.520Z,19.95
2023-02-11T16:13:38.436Z,18.40
2023-02-11T16:16:19.938Z,18.15
2023-02-11T16:19:04.380Z,18.13
2023-02-11T16:21:39.309Z,18.98
2023-02-11T16:24:15.850Z,17.98
2023-02-11T16:26:48.039Z,18.42
2023-02-11T16:29:24.775Z,19.00
2023-02-11T16:31:53.564Z,17.85
2023-02-11T16:34:24.556Z,17.35
2023-02-11T16:36:52.227Z,18.25
2023-02-11T16:39:22.684Z,17.60
2023-02-11T16:41:56.240Z,17.60
2023-02-11T16:44:25.571Z,16.67
2023-02-11T16:46:56.075Z,17.73
2023-02-11T16:49:25.840Z,17.70
2023-02-11T16:52:01.245Z,19.02
2023-02-11T16:54:29.257Z,17.67
2023-02-11T16:57:02.138Z,17.98
2023-02-11T16:59:28.971Z,17.75
2023-02-11T17:01:55.773Z,19.02
2023-02-11T17:04:27.814Z,18.83
2023-02-11T17:06:58.690Z,17.63
2023-02-11T17:09:30.484Z,17.05
2023-02-11T17:11:57.555Z,18.17
2023-02-11T17:14:26.592Z,17.33
2023-02-11T17:16:59.145Z,18.95
2023-02-11T17:19:30.794Z,17.30
2023-02-11T17:22:00.492Z,17.88
2023-02-11T17:24:29.565Z,18.60
2023-02-11T17:26:58.622Z,16.45
2023-02-11T17:29:27.908Z,17.98
2023-02-11T17:31:54.778Z,17.80
2023-02-11T17:34:22.708Z,17.90
2023-02-11T17:36:50.153Z,18.77
2023-02-11T17:39:22.065Z,17.77
2023-02-11T17:41:53.597Z,18.92
2023-02-11T17:44:25.017Z,22.20
2023-02-11T17:46:54.140Z,19.13
2023-02-11T17:49:21.032Z,18.50
2023-02-11T17:51:52.652Z,19.73
2023-02-11T17:54:19.830Z,19.00
2023-02-11T17:59:20.480Z,19.38
2023-02-11T18:01:49.464Z,20.52
2023-02-11T18:04:17.994Z,20.23
2023-02-11T18:06:45.040Z,19.43
2023-02-11T18:09:14.780Z,20.70
2023-02-11T18:11:44.217Z,20.33
2023-02-11T18:16:39.469Z,18.15
2023-02-11T18:19:08.898Z,21.23
2023-02-11T18:21:35.996Z,22.40
2023-02-11T18:26:34.660Z,19.38
2023-02-11T18:29:01.780Z,18.73
2023-02-11T18:31:36.116Z,20.38
2023-02-11T18:34:04.686Z,19.63
2023-02-11T18:36:31.602Z,18.80
2023-02-11T18:39:00.127Z,19.92
2023-02-11T18:41:29.860Z,20.27
2023-02-11T18:43:58.836Z,18.67
2023-02-11T18:46:26.116Z,18.88
2023-02-11T18:48:56.265Z,19.20
2023-02-11T18:51:25.999Z,19.08
2023-02-11T18:53:53.095Z,18.67
2023-02-11T18:56:24.094Z,19.88
2023-02-11T18:58:56.669Z,18.33
2023-02-11T19:01:27.361Z,19.10
2023-02-11T19:03:58.524Z,19.80
2023-02-11T19:06:27.382Z,19.35
2023-02-11T19:09:00.124Z,20.73
2023-02-11T19:11:47.105Z,20.23
2023-02-11T19:14:15.438Z,19.85
2023-02-11T19:16:43.968Z,20.50
2023-02-11T19:19:14.032Z,17.83
2023-02-11T19:21:43.748Z,18.25
2023-02-11T19:24:11.381Z,19.90
2023-02-11T19:26:40.423Z,18.10
2023-02-11T19:29:09.850Z,18.98
2023-02-11T19:34:07.487Z,21.63
2023-02-11T19:36:36.880Z,21.88
2023-02-11T19:39:05.478Z,20.50
2023-02-11T19:41:34.069Z,20.23
2023-02-11T19:44:01.575Z,20.30
2023-02-11T19:46:33.644Z,19.35
2023-02-11T19:49:03.726Z,20.05
2023-02-11T19:51:31.144Z,21.52
2023-02-11T19:54:00.848Z,19.98
2023-02-11T19:56:29.924Z,21.10
2023-02-11T19:58:57.124Z,21.88
2023-02-11T20:01:28.739Z,21.88
2023-02-11T20:03:58.015Z,21.38
2023-02-11T20:06:28.572Z,20.67
2023-02-11T20:08:58.825Z,22.10
2023-02-11T20:11:28.216Z,20.75
2023-02-11T20:13:55.347Z,21.48
2023-02-11T20:16:44.688Z,21.52
2023-02-11T20:19:20.461Z,20.38
2023-02-11T20:21:51.062Z,20.92
2023-02-11T20:24:19.210Z,20.02
2023-02-11T20:26:49.408Z,20.35
2023-02-11T20:29:17.462Z,20.67
2023-02-11T20:31:44.461Z,21.02
2023-02-11T20:34:12.287Z,17.75
2023-02-11T20:36:51.838Z,19.17
2023-02-11T20:39:22.360Z,19.92
2023-02-11T20:41:50.048Z,19.17
2023-02-11T20:44:21.844Z,18.15
2023-02-11T20:46:49.313Z,16.90
2023-02-11T20:49:22.061Z,17.80
2023-02-11T20:51:53.329Z,17.75
2023-02-11T20:54:21.537Z,19.70
2023-02-11T20:56:51.223Z,18.80
2023-02-11T20:59:19.260Z,18.65
2023-02-11T21:01:48.711Z,17.63
2023-02-11T21:06:48.199Z,15.90
2023-02-11T21:09:20.112Z,16.73
2023-02-11T21:11:47.604Z,17.85
2023-02-11T21:14:15.474Z,16.73
2023-02-11T21:16:44.365Z,16.17
2023-02-11T21:19:11.361Z,16.55
2023-02-11T21:21:39.093Z,17.35
2023-02-11T21:24:07.728Z,16.45
2023-02-11T21:26:35.720Z,17.83
2023-02-11T21:29:08.060Z,16.70
2023-02-11T21:31:36.173Z,16.33
2023-02-11T21:34:03.830Z,16.55
2023-02-11T21:36:30.836Z,16.70
2023-02-11T21:39:01.748Z,16.67
2023-02-11T21:41:28.851Z,17.40
2023-02-11T21:43:57.798Z,16.73
2023-02-11T21:46:27.401Z,16.92
2023-02-11T21:49:00.458Z,15.73
2023-02-11T21:51:27.612Z,16.25
2023-02-11T21:54:01.156Z,16.00
2023-02-11T21:56:32.515Z,16.90
2023-02-11T21:58:59.875Z,15.32
2023-02-11T22:01:29.308Z,16.25
2023-02-11T22:03:56.785Z,14.38
2023-02-11T22:06:26.373Z,14.95
2023-02-11T22:08:54.356Z,14.77
2023-02-11T22:11:21.304Z,15.90
2023-02-11T22:13:48.144Z,15.20
2023-02-11T22:16:19.678Z,15.43
2023-02-11T22:18:46.605Z,14.55
2023-02-11T22:21:19.696Z,15.35
2023-02-11T22:23:49.529Z,14.95
2023-02-11T22:26:19.093Z,15.13
2023-02-11T22:28:49.999Z,15.32
2023-02-11T22:31:23.059Z,13.60
2023-02-11T22:33:52.571Z,14.60
2023-02-11T22:38:55.754Z,15.38
2023-02-11T22:41:25.783Z,15.70
2023-02-11T22:43:54.701Z,14.15
2023-02-11T22:46:21.880Z,14.98
2023-02-11T22:48:49.118Z,15.27
2023-02-11T22:51:19.523Z,15.75
2023-02-11T22:53:59.805Z,14.55
2023-02-11T22:56:27.872Z,14.75
2023-02-11T22:59:00.377Z,16.58
2023-02-11T23:01:33.048Z,15.25
2023-02-11T23:04:04.540Z,14.43
2023-02-11T23:06:31.617Z,14.82
2023-02-11T23:08:58.441Z,14.23
2023-02-11T23:11:28.142Z,14.43
2023-02-11T23:13:55.413Z,15.07
2023-02-11T23:16:32.987Z,14.02
2023-02-11T23:19:03.532Z,14.70
2023-02-11T23:21:36.047Z,14.88
2023-02-11T23:24:08.953Z,15.07
2023-02-11T23:26:43.911Z,14.00
2023-02-11T23:29:14.007Z,16.30
2023-02-11T23:31:44.134Z,15.15
2023-02-11T23:34:11.773Z,15.13
2023-02-11T23:36:39.042Z,14.77
2023-02-11T23:41:42.512Z,14.93
2023-02-11T23:44:12.127Z,13.38
2023-02-11T23:46:42.113Z,15.52
2023-02-11T23:49:08.997Z,14.57
2023-02-11T23:51:35.765Z,15.45
2023-02-11T23:54:03.329Z,14.98
2023-02-11T23:56:30.623Z,14.65
2023-02-11T23:58:59.392Z,16.08
